createdAt,value
2018-10-01T00:02:01.772Z,7.33
2018-10-01T00:05:06.283Z,7.30
2018-10-01T00:08:10.719Z,8.00
2018-10-01T00:11:15.137Z,7.47
2018-10-01T00:14:19.569Z,6.50
2018-10-01T00:17:24.054Z,7.70
2018-10-01T00:20:33.699Z,6.47
2018-10-01T00:23:38.242Z,7.13
2018-10-01T00:26:42.662Z,7.33
2018-10-01T00:29:47.096Z,7.83
2018-10-01T00:32:51.563Z,7.50
2018-10-01T00:35:55.986Z,8.53
2018-10-01T00:39:00.443Z,8.70
2018-10-01T00:42:04.919Z,7.00
2018-10-01T00:45:09.770Z,7.67
2018-10-01T00:48:14.224Z,7.50
2018-10-01T00:51:18.652Z,7.30
2018-10-01T00:54:23.088Z,8.43
2018-10-01T00:57:27.578Z,8.43
2018-10-01T01:00:32.023Z,9.63
2018-10-01T01:03:36.521Z,8.90
2018-10-01T01:06:40.946Z,7.50
2018-10-01T01:09:45.436Z,8.87
2018-10-01T01:12:49.889Z,8.70
2018-10-01T01:15:54.308Z,8.03
2018-10-01T01:18:58.745Z,8.07
2018-10-01T01:22:03.166Z,8.43
2018-10-01T01:25:07.630Z,8.17
2018-10-01T01:28:12.858Z,8.50
2018-10-01T01:31:17.302Z,7.73
2018-10-01T01:34:21.739Z,7.60
2018-10-01T01:37:26.180Z,8.20
2018-10-01T01:40:30.653Z,7.17
2018-10-01T01:43:35.180Z,7.70
2018-10-01T01:46:39.618Z,7.17
2018-10-01T01:49:44.066Z,7.37
2018-10-01T01:52:48.535Z,7.20
2018-10-01T01:55:52.990Z,7.03
2018-10-01T01:58:57.444Z,6.30
2018-10-01T02:02:01.875Z,6.50
2018-10-01T02:05:06.477Z,6.17
2018-10-01T02:08:10.897Z,6.63
2018-10-01T02:11:15.342Z,6.93
2018-10-01T02:14:19.795Z,5.90
2018-10-01T02:17:24.222Z,5.37
2018-10-01T02:20:28.674Z,6.63
2018-10-01T02:23:33.112Z,6.17
2018-10-01T02:26:37.617Z,6.47
2018-10-01T02:29:42.068Z,5.60
2018-10-01T02:32:46.520Z,5.80
2018-10-01T02:35:51.030Z,5.70
2018-10-01T02:38:55.580Z,5.60
2018-10-01T02:42:00.126Z,5.33
2018-10-01T02:45:05.590Z,5.47
2018-10-01T02:48:10.132Z,5.63
2018-10-01T02:51:14.661Z,5.27
2018-10-01T02:54:24.170Z,5.50
2018-10-01T02:57:28.723Z,5.47
2018-10-01T03:00:33.244Z,4.80
2018-10-01T03:03:37.698Z,6.30
2018-10-01T03:06:42.171Z,5.83
2018-10-01T03:09:46.670Z,6.27
2018-10-01T03:12:51.157Z,5.80
2018-10-01T03:15:55.630Z,5.70
2018-10-01T03:19:00.110Z,5.40
2018-10-01T03:22:04.791Z,4.73
2018-10-01T03:25:09.319Z,6.00
2018-10-01T03:28:13.785Z,5.53
2018-10-01T03:31:18.283Z,6.20
2018-10-01T03:34:22.747Z,6.10
2018-10-01T03:37:27.238Z,6.60
2018-10-01T03:40:31.965Z,5.40
2018-10-01T03:43:36.400Z,5.70
2018-10-01T03:46:40.847Z,5.57
2018-10-01T03:49:45.292Z,5.97
2018-10-01T03:52:49.752Z,5.77
2018-10-01T03:55:54.211Z,5.70
2018-10-01T03:58:58.638Z,5.43
2018-10-01T04:02:03.100Z,5.07
2018-10-01T04:05:07.574Z,4.80
2018-10-01T04:08:12.043Z,5.13
2018-10-01T04:11:16.501Z,5.10
2018-10-01T04:14:20.940Z,5.27
2018-10-01T04:17:25.386Z,6.03
2018-10-01T04:20:29.810Z,5.40
2018-10-01T04:23:34.400Z,5.50
2018-10-01T04:26:38.847Z,4.67
2018-10-01T04:29:43.286Z,5.00
2018-10-01T04:32:47.732Z,5.23
2018-10-01T04:35:52.158Z,5.63
2018-10-01T04:38:56.663Z,5.37
2018-10-01T04:42:01.158Z,5.40
2018-10-01T04:45:05.661Z,5.00
2018-10-01T04:48:10.159Z,4.40
2018-10-01T04:51:14.606Z,5.53
2018-10-01T04:54:19.102Z,5.93
2018-10-01T04:57:23.573Z,5.17
2018-10-01T05:00:28.052Z,6.07
2018-10-01T05:03:32.518Z,5.67
2018-10-01T05:06:36.976Z,5.77
2018-10-01T05:09:41.489Z,5.83
2018-10-01T05:12:45.989Z,5.67
2018-10-01T05:15:50.445Z,6.80
2018-10-01T05:18:54.948Z,6.27
2018-10-01T05:21:59.405Z,6.73
2018-10-01T05:25:03.940Z,6.20
2018-10-01T05:28:08.652Z,7.17
2018-10-01T05:31:13.122Z,7.27
2018-10-01T05:34:17.595Z,7.83
2018-10-01T05:37:22.053Z,7.90
2018-10-01T05:40:26.575Z,8.27
2018-10-01T05:43:31.064Z,9.40
2018-10-01T05:46:35.539Z,10.33
2018-10-01T05:49:40.009Z,10.13
2018-10-01T05:52:44.546Z,11.77
2018-10-01T05:55:48.996Z,11.00
2018-10-01T05:58:53.470Z,12.30
2018-10-01T06:01:57.971Z,13.07
2018-10-01T06:05:02.523Z,13.10
2018-10-01T06:08:07.286Z,15.03
2018-10-01T06:11:11.750Z,13.23
2018-10-01T06:14:16.234Z,13.97
2018-10-01T06:17:20.725Z,13.97
2018-10-01T06:20:26.006Z,14.20
2018-10-01T06:23:30.518Z,13.97
2018-10-01T06:26:34.987Z,14.33
2018-10-01T06:29:39.466Z,15.37
2018-10-01T06:32:43.996Z,15.30
2018-10-01T06:35:48.490Z,15.17
2018-10-01T06:38:52.962Z,15.57
2018-10-01T06:41:57.535Z,13.60
2018-10-01T06:45:01.922Z,15.23
2018-10-01T06:48:06.522Z,15.10
2018-10-01T06:51:11.002Z,14.17
2018-10-01T06:54:15.482Z,15.10
2018-10-01T06:57:19.941Z,14.60
2018-10-01T07:00:24.418Z,15.63
2018-10-01T07:03:28.941Z,14.73
2018-10-01T07:06:33.429Z,16.37
2018-10-01T07:09:37.931Z,14.37
2018-10-01T07:12:42.408Z,13.10
2018-10-01T07:15:46.942Z,14.07
2018-10-01T07:18:51.572Z,15.57
2018-10-01T07:21:56.039Z,15.07
2018-10-01T07:25:00.514Z,14.07
2018-10-01T07:28:05.079Z,14.23
2018-10-01T07:31:09.627Z,14.80
2018-10-01T07:34:14.153Z,13.93
2018-10-01T07:37:18.638Z,13.70
2018-10-01T07:40:23.151Z,13.43
2018-10-01T07:43:27.610Z,14.10
2018-10-01T07:46:32.075Z,14.80
2018-10-01T07:49:36.550Z,14.17
2018-10-01T07:52:41.064Z,14.43
2018-10-01T07:55:45.574Z,14.00
2018-10-01T07:58:50.034Z,13.73
2018-10-01T08:01:54.525Z,14.43
2018-10-01T08:04:58.991Z,15.87
2018-10-01T08:08:03.453Z,14.83
2018-10-01T08:11:08.234Z,15.77
2018-10-01T08:14:12.836Z,14.53
2018-10-01T08:17:17.213Z,14.90
2018-10-01T08:20:21.716Z,14.60
2018-10-01T08:23:26.168Z,15.60
2018-10-01T08:26:30.731Z,15.37
2018-10-01T08:29:35.281Z,14.87
2018-10-01T08:32:39.740Z,14.57
2018-10-01T08:35:44.146Z,15.50
2018-10-01T08:38:48.627Z,16.27
2018-10-01T08:41:53.125Z,15.73
2018-10-01T08:44:57.626Z,18.17
2018-10-01T08:48:02.110Z,18.97
2018-10-01T08:51:17.217Z,19.53
2018-10-01T08:54:28.603Z,18.13
2018-10-01T08:57:33.090Z,17.93
2018-10-01T09:00:37.562Z,18.03
2018-10-01T09:03:42.026Z,17.87
2018-10-01T09:06:46.543Z,18.07
2018-10-01T09:09:50.990Z,17.50
2018-10-01T09:12:55.493Z,16.47
2018-10-01T09:16:00.055Z,17.00
2018-10-01T09:19:04.561Z,15.70
2018-10-01T09:22:09.094Z,15.97
2018-10-01T09:25:13.578Z,14.93
2018-10-01T09:28:18.028Z,14.63
2018-10-01T09:31:22.501Z,15.33
2018-10-01T09:34:27.002Z,14.30
2018-10-01T09:37:31.525Z,13.93
2018-10-01T09:40:36.118Z,14.30
2018-10-01T09:43:40.576Z,13.23
2018-10-01T09:46:45.099Z,12.73
2018-10-01T09:49:49.546Z,14.20
2018-10-01T09:52:54.022Z,13.37
2018-10-01T09:55:58.537Z,12.33
2018-10-01T09:59:03.107Z,13.20
2018-10-01T10:02:07.615Z,11.37
2018-10-01T10:05:12.062Z,11.87
2018-10-01T10:08:16.628Z,10.63
2018-10-01T10:11:21.038Z,10.77
2018-10-01T10:14:25.500Z,10.33
2018-10-01T10:17:29.983Z,11.37
2018-10-01T10:20:34.500Z,11.07
2018-10-01T10:23:38.969Z,10.30
2018-10-01T10:26:43.711Z,9.57
2018-10-01T10:29:48.194Z,10.20
2018-10-01T10:32:52.659Z,9.43
2018-10-01T10:35:57.121Z,10.60
2018-10-01T10:39:01.599Z,10.27
2018-10-01T10:42:06.085Z,9.23
2018-10-01T10:45:10.574Z,8.80
2018-10-01T10:48:15.246Z,9.13
2018-10-01T10:51:19.616Z,8.47
2018-10-01T10:54:24.164Z,9.77
2018-10-01T10:57:28.658Z,9.27
2018-10-01T11:00:33.109Z,8.23
2018-10-01T11:03:37.562Z,9.33
2018-10-01T11:06:42.140Z,7.87
2018-10-01T11:09:46.614Z,8.30
2018-10-01T11:12:51.078Z,6.93
2018-10-01T11:15:55.527Z,7.20
2018-10-01T11:19:00.139Z,6.60
2018-10-01T11:22:04.563Z,7.83
2018-10-01T11:25:09.068Z,7.07
2018-10-01T11:28:13.574Z,6.43
2018-10-01T11:31:18.047Z,6.10
2018-10-01T11:34:22.621Z,5.90
2018-10-01T11:37:27.111Z,5.77
2018-10-01T11:40:31.638Z,5.93
2018-10-01T11:43:36.110Z,5.83
2018-10-01T11:46:40.590Z,6.10
2018-10-01T11:49:45.115Z,5.50
2018-10-01T11:52:49.639Z,5.43
2018-10-01T11:55:54.106Z,5.40
2018-10-01T11:58:58.647Z,4.77
2018-10-01T12:02:03.150Z,4.57
2018-10-01T12:05:08.640Z,4.17
2018-10-01T12:08:13.093Z,3.63
2018-10-01T12:11:17.579Z,3.57
2018-10-01T12:14:22.031Z,3.47
2018-10-01T12:17:26.526Z,3.03
2018-10-01T12:20:31.010Z,3.10
2018-10-01T12:23:35.470Z,2.80
2018-10-01T12:26:39.920Z,2.53
2018-10-01T12:29:44.382Z,2.60
2018-10-01T12:32:48.860Z,2.47
2018-10-01T12:35:53.325Z,2.30
2018-10-01T12:38:57.869Z,2.07
2018-10-01T12:42:02.293Z,2.20
2018-10-01T12:45:07.958Z,2.30
2018-10-01T12:48:12.393Z,2.00
2018-10-01T12:51:16.867Z,2.33
2018-10-01T12:54:21.312Z,2.30
2018-10-01T12:57:25.790Z,2.20
2018-10-01T13:00:30.201Z,2.40
2018-10-01T13:03:34.639Z,2.50
2018-10-01T13:06:39.164Z,2.43
2018-10-01T13:09:43.607Z,2.30
2018-10-01T13:12:48.039Z,1.90
2018-10-01T13:15:52.557Z,2.20
2018-10-01T13:18:57.090Z,1.53
2018-10-01T13:22:01.710Z,1.40
2018-10-01T13:25:06.753Z,1.80
2018-10-01T13:28:11.086Z,1.50
2018-10-01T13:31:15.598Z,1.50
2018-10-01T13:34:20.062Z,1.50
2018-10-01T13:37:24.509Z,2.00
2018-10-01T13:40:29.070Z,1.63
2018-10-01T13:43:33.518Z,2.50
2018-10-01T13:46:38.019Z,1.70
2018-10-01T13:49:42.505Z,3.30
2018-10-01T13:52:46.964Z,2.60
2018-10-01T13:55:51.471Z,2.63
2018-10-01T13:58:55.934Z,2.37
2018-10-01T14:02:00.450Z,2.73
2018-10-01T14:05:04.970Z,2.43
2018-10-01T14:08:09.452Z,2.70
2018-10-01T14:11:13.957Z,2.60
2018-10-01T14:14:18.419Z,1.70
2018-10-01T14:17:22.891Z,3.83
2018-10-01T14:20:27.354Z,2.50
2018-10-01T14:23:31.806Z,2.63
2018-10-01T14:26:36.269Z,2.83
2018-10-01T14:29:40.730Z,3.40
2018-10-01T14:32:45.209Z,2.67
2018-10-01T14:35:49.691Z,3.33
2018-10-01T14:38:54.151Z,2.40
2018-10-01T14:41:58.666Z,2.33
2018-10-01T14:45:03.195Z,2.67
2018-10-01T14:48:07.736Z,2.43
2018-10-01T14:51:12.203Z,2.40
2018-10-01T14:54:16.692Z,3.27
2018-10-01T14:57:21.127Z,1.90
2018-10-01T15:00:25.726Z,2.40
2018-10-01T15:03:30.022Z,2.40
2018-10-01T15:06:34.513Z,2.10
2018-10-01T15:09:38.928Z,2.40
2018-10-01T15:12:43.370Z,2.10
2018-10-01T15:15:47.786Z,2.40
2018-10-01T15:18:52.227Z,2.13
2018-10-01T15:21:56.674Z,1.87
2018-10-01T15:25:01.186Z,2.00
2018-10-01T15:28:05.643Z,1.60
2018-10-01T15:31:10.164Z,1.67
2018-10-01T15:34:14.689Z,1.80
2018-10-01T15:37:19.211Z,1.43
2018-10-01T15:40:23.738Z,1.20
2018-10-01T15:43:28.196Z,2.30
2018-10-01T15:46:32.789Z,1.60
2018-10-01T15:49:37.304Z,2.03
2018-10-01T15:52:41.758Z,1.60
2018-10-01T15:55:46.420Z,1.50
2018-10-01T15:58:50.914Z,2.00
2018-10-01T16:01:55.357Z,1.80
2018-10-01T16:04:59.819Z,1.33
2018-10-01T16:08:04.272Z,1.60
2018-10-01T16:11:08.711Z,1.43
2018-10-01T16:14:13.218Z,1.73
2018-10-01T16:17:17.917Z,1.93
2018-10-01T16:20:22.514Z,1.87
2018-10-01T16:23:26.984Z,1.67
2018-10-01T16:26:31.532Z,1.83
2018-10-01T16:29:36.138Z,2.10
2018-10-01T16:32:40.676Z,1.97
2018-10-01T16:35:45.120Z,1.77
2018-10-01T16:38:49.801Z,1.70
2018-10-01T16:41:54.361Z,1.80
2018-10-01T16:44:58.977Z,1.47
2018-10-01T16:48:03.724Z,1.40
2018-10-01T16:51:08.463Z,1.87
2018-10-01T16:54:12.963Z,1.70
2018-10-01T16:57:18.607Z,3.70
2018-10-01T17:00:23.128Z,1.87
2018-10-01T17:03:27.917Z,1.97
2018-10-01T17:06:33.432Z,1.60
2018-10-01T17:09:37.917Z,1.50
2018-10-01T17:12:42.418Z,1.90
2018-10-01T17:15:46.923Z,1.70
2018-10-01T17:18:51.430Z,1.60
2018-10-01T17:21:55.922Z,2.10
2018-10-01T17:25:00.403Z,2.40
2018-10-01T17:28:04.960Z,2.20
2018-10-01T17:31:09.701Z,2.20
2018-10-01T17:34:14.206Z,2.17
2018-10-01T17:37:18.718Z,2.30
2018-10-01T17:40:23.678Z,2.30
2018-10-01T17:43:28.362Z,2.23
2018-10-01T17:46:32.882Z,2.20
2018-10-01T17:49:37.418Z,2.80
2018-10-01T17:52:42.074Z,2.07
2018-10-01T17:55:46.907Z,1.93
2018-10-01T17:58:51.392Z,1.67
2018-10-01T18:01:55.916Z,1.60
2018-10-01T18:05:00.571Z,1.60
2018-10-01T18:08:05.185Z,1.70
2018-10-01T18:11:09.809Z,1.40
2018-10-01T18:14:14.314Z,1.40
2018-10-01T18:17:18.863Z,2.10
2018-10-01T18:20:23.362Z,1.53
2018-10-01T18:23:27.826Z,1.63
2018-10-01T18:26:32.439Z,1.80
2018-10-01T18:29:37.059Z,1.40
2018-10-01T18:32:41.510Z,1.80
2018-10-01T18:35:45.978Z,1.40
2018-10-01T18:38:50.526Z,1.60
2018-10-01T18:41:55.096Z,2.20
2018-10-01T18:44:59.489Z,1.90
2018-10-01T18:48:03.924Z,1.87
2018-10-01T18:51:08.482Z,1.70
2018-10-01T18:54:13.277Z,1.40
2018-10-01T18:57:17.787Z,1.07
2018-10-01T19:00:22.325Z,1.10
2018-10-01T19:03:26.826Z,1.10
2018-10-01T19:06:31.375Z,1.67
2018-10-01T19:09:35.886Z,1.50
2018-10-01T19:12:40.433Z,1.47
2018-10-01T19:15:44.866Z,1.60
2018-10-01T19:18:49.389Z,1.10
2018-10-01T19:21:53.834Z,1.30
2018-10-01T19:24:58.354Z,1.27
2018-10-01T19:28:02.841Z,1.60
2018-10-01T19:31:07.340Z,1.30
2018-10-01T19:34:11.830Z,1.83
2018-10-01T19:37:16.441Z,1.67
2018-10-01T19:40:20.921Z,1.40
2018-10-01T19:43:25.429Z,1.40
2018-10-01T19:46:29.929Z,1.60
2018-10-01T19:49:34.386Z,1.70
2018-10-01T19:52:38.865Z,1.67
2018-10-01T19:55:43.322Z,1.50
2018-10-01T19:58:47.905Z,1.57
2018-10-01T20:01:52.411Z,1.73
2018-10-01T20:04:56.980Z,1.90
2018-10-01T20:08:01.398Z,1.97
2018-10-01T20:11:06.059Z,1.87
2018-10-01T20:14:10.550Z,2.03
2018-10-01T20:17:15.113Z,2.03
2018-10-01T20:20:20.303Z,4.43
2018-10-01T20:23:24.779Z,2.43
2018-10-01T20:26:30.024Z,2.30
2018-10-01T20:29:34.550Z,2.57
2018-10-01T20:32:39.062Z,2.00
2018-10-01T20:35:44.163Z,2.20
2018-10-01T20:38:48.497Z,2.33
2018-10-01T20:41:53.152Z,2.80
2018-10-01T20:44:57.579Z,3.37
2018-10-01T20:48:02.241Z,2.30
2018-10-01T20:51:06.743Z,2.27
2018-10-01T20:54:11.193Z,2.43
2018-10-01T20:57:15.692Z,2.70
2018-10-01T21:00:20.170Z,2.40
2018-10-01T21:03:24.647Z,2.03
2018-10-01T21:06:29.114Z,2.90
2018-10-01T21:09:33.637Z,2.77
2018-10-01T21:12:38.170Z,2.97
2018-10-01T21:15:42.662Z,3.00
2018-10-01T21:18:47.157Z,3.20
2018-10-01T21:21:51.607Z,3.97
2018-10-01T21:24:56.097Z,2.77
2018-10-01T21:28:00.571Z,2.90
2018-10-01T21:31:05.064Z,2.23
2018-10-01T21:34:09.572Z,2.57
2018-10-01T21:37:14.030Z,3.03
2018-10-01T21:40:18.870Z,3.20
2018-10-01T21:43:23.356Z,2.73
2018-10-01T21:46:27.798Z,2.73
2018-10-01T21:49:32.271Z,2.50
2018-10-01T21:52:36.795Z,2.50
2018-10-01T21:55:41.324Z,2.87
2018-10-01T21:58:45.851Z,2.93
2018-10-01T22:01:54.346Z,2.63
2018-10-01T22:04:58.798Z,2.80
2018-10-01T22:08:03.258Z,2.80
2018-10-01T22:11:07.695Z,2.30
2018-10-01T22:14:12.151Z,2.80
2018-10-01T22:17:16.590Z,2.60
2018-10-01T22:20:21.030Z,2.70
2018-10-01T22:23:25.508Z,2.63
2018-10-01T22:26:29.957Z,2.27
2018-10-01T22:29:34.580Z,2.50
2018-10-01T22:32:39.040Z,2.10
2018-10-01T22:35:43.468Z,2.43
2018-10-01T22:38:47.914Z,3.03
2018-10-01T22:41:52.648Z,2.60
2018-10-01T22:44:57.093Z,2.20
2018-10-01T22:48:01.578Z,2.50
2018-10-01T22:51:06.064Z,2.10
2018-10-01T22:54:10.524Z,2.07
2018-10-01T22:57:14.981Z,1.83
2018-10-01T23:00:19.467Z,3.23
2018-10-01T23:03:23.969Z,3.20
2018-10-01T23:06:28.510Z,2.17
2018-10-01T23:09:32.980Z,1.90
2018-10-01T23:12:37.450Z,2.10
2018-10-01T23:15:41.930Z,2.23
2018-10-01T23:18:46.390Z,2.20
2018-10-01T23:21:50.886Z,2.00
2018-10-01T23:24:55.349Z,2.10
2018-10-01T23:27:59.800Z,2.00
2018-10-01T23:31:04.270Z,2.30
2018-10-01T23:34:08.729Z,1.93
2018-10-01T23:37:13.186Z,1.90
2018-10-01T23:50:58.493Z,2.03
2018-10-01T23:54:02.981Z,2.20
2018-10-01T23:57:07.501Z,1.70
